sensor_id;sensor_type;location;lat;lon;timestamp;P1;durP1;ratioP1;P2;durP2;ratioP2
30707;SDS011;17458;48.958;8.284;2023-05-10T00:00:35;1.00;;;1.00;;
30707;SDS011;17458;48.958;8.284;2023-05-10T00:03:19;2.15;;;0.80;;
30707;SDS011;17458;48.958;8.284;2023-05-10T00:06:03;1.60;;;0.82;;
30707;SDS011;17458;48.958;8.284;2023-05-10T00:08:47;0.90;;;0.90;;
30707;SDS011;17458;48.958;8.284;2023-05-10T00:11:31;3.80;;;1.15;;
30707;SDS011;17458;48.958;8.284;2023-05-10T00:14:15;2.92;;;1.02;;
30707;SDS011;17458;48.958;8.284;2023-05-10T00:16:59;3.08;;;0.93;;
30707;SDS011;17458;48.958;8.284;2023-05-10T00:19:42;4.03;;;1.33;;
30707;SDS011;17458;48.958;8.284;2023-05-10T00:22:26;1.00;;;1.00;;
30707;SDS011;17458;48.958;8.284;2023-05-10T00:25:10;0.95;;;0.95;;
30707;SDS011;17458;48.958;8.284;2023-05-10T00:27:54;2.63;;;1.17;;
30707;SDS011;17458;48.958;8.284;2023-05-10T00:30:39;3.80;;;1.00;;
30707;SDS011;17458;48.958;8.284;2023-05-10T00:33:23;1.98;;;1.20;;
30707;SDS011;17458;48.958;8.284;2023-05-10T00:36:07;0.90;;;0.90;;
30707;SDS011;17458;48.958;8.284;2023-05-10T00:38:51;0.90;;;0.90;;
30707;SDS011;17458;48.958;8.284;2023-05-10T00:41:35;1.10;;;1.10;;
30707;SDS011;17458;48.958;8.284;2023-05-10T00:44:20;6.03;;;1.23;;
30707;SDS011;17458;48.958;8.284;2023-05-10T00:47:04;1.42;;;1.33;;
30707;SDS011;17458;48.958;8.284;2023-05-10T00:49:48;1.63;;;1.52;;
30707;SDS011;17458;48.958;8.284;2023-05-10T00:52:33;2.20;;;1.40;;
30707;SDS011;17458;48.958;8.284;2023-05-10T00:55:17;1.63;;;1.30;;
30707;SDS011;17458;48.958;8.284;2023-05-10T00:58:04;1.30;;;1.20;;
30707;SDS011;17458;48.958;8.284;2023-05-10T01:00:48;4.28;;;1.27;;
30707;SDS011;17458;48.958;8.284;2023-05-10T01:03:33;1.50;;;1.40;;
30707;SDS011;17458;48.958;8.284;2023-05-10T01:06:17;2.05;;;1.70;;
30707;SDS011;17458;48.958;8.284;2023-05-10T01:09:00;2.08;;;1.40;;
30707;SDS011;17458;48.958;8.284;2023-05-10T01:11:45;7.95;;;1.40;;
30707;SDS011;17458;48.958;8.284;2023-05-10T01:14:30;4.78;;;1.40;;
30707;SDS011;17458;48.958;8.284;2023-05-10T01:17:14;2.72;;;1.50;;
30707;SDS011;17458;48.958;8.284;2023-05-10T01:20:00;2.50;;;1.52;;
30707;SDS011;17458;48.958;8.284;2023-05-10T01:26:07;1.73;;;1.40;;
30707;SDS011;17458;48.958;8.284;2023-05-10T01:29:34;1.77;;;1.67;;
30707;SDS011;17458;48.958;8.284;2023-05-10T01:32:36;2.30;;;1.60;;
30707;SDS011;17458;48.958;8.284;2023-05-10T01:35:26;1.88;;;1.67;;
30707;SDS011;17458;48.958;8.284;2023-05-10T01:41:51;6.35;;;2.05;;
30707;SDS011;17458;48.958;8.284;2023-05-10T01:44:42;2.15;;;1.95;;
30707;SDS011;17458;48.958;8.284;2023-05-10T01:50:51;2.30;;;2.10;;
30707;SDS011;17458;48.958;8.284;2023-05-10T01:53:37;3.13;;;2.50;;
30707;SDS011;17458;48.958;8.284;2023-05-10T01:56:23;3.45;;;2.35;;
30707;SDS011;17458;48.958;8.284;2023-05-10T01:59:11;2.78;;;2.58;;
30707;SDS011;17458;48.958;8.284;2023-05-10T02:01:59;3.90;;;2.40;;
30707;SDS011;17458;48.958;8.284;2023-05-10T02:04:44;4.13;;;2.40;;
30707;SDS011;17458;48.958;8.284;2023-05-10T02:07:30;2.65;;;2.25;;
30707;SDS011;17458;48.958;8.284;2023-05-10T02:10:15;2.90;;;2.30;;
30707;SDS011;17458;48.958;8.284;2023-05-10T02:13:00;4.47;;;2.40;;
30707;SDS011;17458;48.958;8.284;2023-05-10T02:15:47;2.55;;;2.35;;
30707;SDS011;17458;48.958;8.284;2023-05-10T02:18:33;2.67;;;2.10;;
30707;SDS011;17458;48.958;8.284;2023-05-10T02:21:20;5.57;;;2.55;;
30707;SDS011;17458;48.958;8.284;2023-05-10T02:24:05;3.20;;;2.67;;
30707;SDS011;17458;48.958;8.284;2023-05-10T02:26:51;4.32;;;2.70;;
30707;SDS011;17458;48.958;8.284;2023-05-10T02:29:39;4.47;;;2.45;;
30707;SDS011;17458;48.958;8.284;2023-05-10T02:32:24;3.00;;;2.70;;
30707;SDS011;17458;48.958;8.284;2023-05-10T02:35:10;4.25;;;2.50;;
30707;SDS011;17458;48.958;8.284;2023-05-10T02:37:56;4.55;;;2.65;;
30707;SDS011;17458;48.958;8.284;2023-05-10T02:40:42;3.03;;;2.75;;
30707;SDS011;17458;48.958;8.284;2023-05-10T02:43:27;6.03;;;2.45;;
30707;SDS011;17458;48.958;8.284;2023-05-10T02:46:15;6.85;;;2.75;;
30707;SDS011;17458;48.958;8.284;2023-05-10T02:49:00;6.80;;;2.50;;
30707;SDS011;17458;48.958;8.284;2023-05-10T02:51:46;4.00;;;2.42;;
30707;SDS011;17458;48.958;8.284;2023-05-10T02:54:38;5.45;;;2.65;;
30707;SDS011;17458;48.958;8.284;2023-05-10T02:57:32;2.42;;;2.22;;
30707;SDS011;17458;48.958;8.284;2023-05-10T03:00:18;3.40;;;2.38;;
30707;SDS011;17458;48.958;8.284;2023-05-10T03:03:02;3.63;;;3.13;;
30707;SDS011;17458;48.958;8.284;2023-05-10T03:05:46;4.38;;;2.60;;
30707;SDS011;17458;48.958;8.284;2023-05-10T03:08:30;4.95;;;2.83;;
30707;SDS011;17458;48.958;8.284;2023-05-10T03:14:34;3.75;;;3.40;;
30707;SDS011;17458;48.958;8.284;2023-05-10T03:20:31;4.63;;;2.55;;
30707;SDS011;17458;48.958;8.284;2023-05-10T03:23:27;5.10;;;3.47;;
30707;SDS011;17458;48.958;8.284;2023-05-10T03:26:20;6.40;;;3.08;;
30707;SDS011;17458;48.958;8.284;2023-05-10T03:29:14;4.07;;;3.05;;
30707;SDS011;17458;48.958;8.284;2023-05-10T03:31:59;3.70;;;3.08;;
30707;SDS011;17458;48.958;8.284;2023-05-10T03:34:45;4.18;;;3.13;;
30707;SDS011;17458;48.958;8.284;2023-05-10T03:37:29;3.20;;;2.38;;
30707;SDS011;17458;48.958;8.284;2023-05-10T03:40:13;3.55;;;3.00;;
30707;SDS011;17458;48.958;8.284;2023-05-10T03:42:59;9.15;;;3.03;;
30707;SDS011;17458;48.958;8.284;2023-05-10T03:45:44;8.20;;;2.88;;
30707;SDS011;17458;48.958;8.284;2023-05-10T03:48:27;7.68;;;3.13;;
30707;SDS011;17458;48.958;8.284;2023-05-10T03:51:12;7.13;;;3.03;;
30707;SDS011;17458;48.958;8.284;2023-05-10T03:53:57;2.53;;;2.33;;
30707;SDS011;17458;48.958;8.284;2023-05-10T03:56:41;2.28;;;2.08;;
30707;SDS011;17458;48.958;8.284;2023-05-10T03:59:25;3.95;;;2.65;;
30707;SDS011;17458;48.958;8.284;2023-05-10T04:02:10;1.90;;;1.80;;
30707;SDS011;17458;48.958;8.284;2023-05-10T04:04:53;2.50;;;2.30;;
30707;SDS011;17458;48.958;8.284;2023-05-10T04:07:37;2.08;;;1.90;;
30707;SDS011;17458;48.958;8.284;2023-05-10T04:10:21;2.05;;;1.80;;
30707;SDS011;17458;48.958;8.284;2023-05-10T04:13:05;2.78;;;2.47;;
30707;SDS011;17458;48.958;8.284;2023-05-10T04:15:49;2.00;;;1.90;;
30707;SDS011;17458;48.958;8.284;2023-05-10T04:18:33;5.28;;;2.20;;
30707;SDS011;17458;48.958;8.284;2023-05-10T04:21:18;2.08;;;1.98;;
30707;SDS011;17458;48.958;8.284;2023-05-10T04:24:02;2.42;;;2.22;;
30707;SDS011;17458;48.958;8.284;2023-05-10T04:26:45;3.88;;;2.38;;
30707;SDS011;17458;48.958;8.284;2023-05-10T04:29:29;2.72;;;1.90;;
30707;SDS011;17458;48.958;8.284;2023-05-10T04:32:13;5.45;;;2.45;;
30707;SDS011;17458;48.958;8.284;2023-05-10T04:35:00;5.68;;;3.10;;
30707;SDS011;17458;48.958;8.284;2023-05-10T04:37:46;2.35;;;2.15;;
30707;SDS011;17458;48.958;8.284;2023-05-10T04:40:30;5.05;;;2.17;;
30707;SDS011;17458;48.958;8.284;2023-05-10T04:43:14;3.25;;;2.78;;
30707;SDS011;17458;48.958;8.284;2023-05-10T04:45:58;3.00;;;2.42;;
30707;SDS011;17458;48.958;8.284;2023-05-10T04:48:42;6.32;;;2.40;;
30707;SDS011;17458;48.958;8.284;2023-05-10T04:51:26;5.55;;;2.70;;
30707;SDS011;17458;48.958;8.284;2023-05-10T04:54:10;4.90;;;2.67;;
30707;SDS011;17458;48.958;8.284;2023-05-10T04:56:54;3.83;;;2.67;;
30707;SDS011;17458;48.958;8.284;2023-05-10T04:59:38;7.43;;;2.97;;
30707;SDS011;17458;48.958;8.284;2023-05-10T05:02:22;5.57;;;2.83;;
30707;SDS011;17458;48.958;8.284;2023-05-10T05:05:07;3.22;;;2.92;;
30707;SDS011;17458;48.958;8.284;2023-05-10T05:07:51;10.32;;;3.45;;
30707;SDS011;17458;48.958;8.284;2023-05-10T05:10:35;3.17;;;2.90;;
30707;SDS011;17458;48.958;8.284;2023-05-10T05:13:19;3.35;;;2.90;;
30707;SDS011;17458;48.958;8.284;2023-05-10T05:16:03;11.82;;;2.58;;
30707;SDS011;17458;48.958;8.284;2023-05-10T05:18:47;3.30;;;2.60;;
30707;SDS011;17458;48.958;8.284;2023-05-10T05:21:31;6.10;;;2.50;;
30707;SDS011;17458;48.958;8.284;2023-05-10T05:24:16;5.45;;;3.00;;
30707;SDS011;17458;48.958;8.284;2023-05-10T05:26:59;4.80;;;2.35;;
30707;SDS011;17458;48.958;8.284;2023-05-10T05:29:44;5.13;;;2.55;;
30707;SDS011;17458;48.958;8.284;2023-05-10T05:32:28;2.55;;;2.28;;
30707;SDS011;17458;48.958;8.284;2023-05-10T05:35:11;2.45;;;2.25;;
30707;SDS011;17458;48.958;8.284;2023-05-10T05:37:56;2.35;;;2.13;;
30707;SDS011;17458;48.958;8.284;2023-05-10T05:44:14;2.97;;;1.85;;
30707;SDS011;17458;48.958;8.284;2023-05-10T05:46:58;7.10;;;1.70;;
30707;SDS011;17458;48.958;8.284;2023-05-10T05:49:42;7.15;;;3.10;;
30707;SDS011;17458;48.958;8.284;2023-05-10T05:52:26;5.65;;;2.65;;
30707;SDS011;17458;48.958;8.284;2023-05-10T05:55:09;3.10;;;1.65;;
30707;SDS011;17458;48.958;8.284;2023-05-10T05:57:53;3.20;;;1.52;;
30707;SDS011;17458;48.958;8.284;2023-05-10T06:00:38;1.63;;;1.40;;
30707;SDS011;17458;48.958;8.284;2023-05-10T06:03:22;7.63;;;1.70;;
30707;SDS011;17458;48.958;8.284;2023-05-10T06:06:06;2.95;;;1.80;;
30707;SDS011;17458;48.958;8.284;2023-05-10T06:08:50;2.60;;;2.15;;
30707;SDS011;17458;48.958;8.284;2023-05-10T06:11:34;2.20;;;1.95;;
30707;SDS011;17458;48.958;8.284;2023-05-10T06:14:20;5.00;;;1.88;;
30707;SDS011;17458;48.958;8.284;2023-05-10T06:17:04;2.15;;;1.77;;
30707;SDS011;17458;48.958;8.284;2023-05-10T06:19:48;4.50;;;1.58;;
30707;SDS011;17458;48.958;8.284;2023-05-10T06:22:32;2.10;;;1.52;;
30707;SDS011;17458;48.958;8.284;2023-05-10T06:25:16;2.63;;;1.98;;
30707;SDS011;17458;48.958;8.284;2023-05-10T06:28:01;4.30;;;2.28;;
30707;SDS011;17458;48.958;8.284;2023-05-10T06:30:45;3.72;;;1.80;;
30707;SDS011;17458;48.958;8.284;2023-05-10T06:33:29;5.28;;;1.75;;
30707;SDS011;17458;48.958;8.284;2023-05-10T06:36:13;1.88;;;1.50;;
30707;SDS011;17458;48.958;8.284;2023-05-10T06:38:57;2.65;;;1.80;;
30707;SDS011;17458;48.958;8.284;2023-05-10T06:41:41;3.15;;;2.33;;
30707;SDS011;17458;48.958;8.284;2023-05-10T06:44:25;5.20;;;2.00;;
30707;SDS011;17458;48.958;8.284;2023-05-10T06:47:09;5.53;;;2.28;;
30707;SDS011;17458;48.958;8.284;2023-05-10T06:49:53;1.75;;;1.65;;
30707;SDS011;17458;48.958;8.284;2023-05-10T06:52:37;2.08;;;1.98;;
30707;SDS011;17458;48.958;8.284;2023-05-10T06:55:21;2.25;;;1.85;;
30707;SDS011;17458;48.958;8.284;2023-05-10T06:58:05;1.40;;;1.27;;
30707;SDS011;17458;48.958;8.284;2023-05-10T07:00:49;5.32;;;2.10;;
30707;SDS011;17458;48.958;8.284;2023-05-10T07:03:33;3.33;;;1.35;;
30707;SDS011;17458;48.958;8.284;2023-05-10T07:06:17;5.43;;;1.80;;
30707;SDS011;17458;48.958;8.284;2023-05-10T07:09:01;1.38;;;1.27;;
30707;SDS011;17458;48.958;8.284;2023-05-10T07:11:45;3.55;;;1.40;;
30707;SDS011;17458;48.958;8.284;2023-05-10T07:14:29;2.08;;;1.30;;
30707;SDS011;17458;48.958;8.284;2023-05-10T07:17:13;2.13;;;0.90;;
30707;SDS011;17458;48.958;8.284;2023-05-10T07:19:58;4.80;;;0.95;;
30707;SDS011;17458;48.958;8.284;2023-05-10T07:22:43;1.38;;;1.08;;
30707;SDS011;17458;48.958;8.284;2023-05-10T07:25:27;2.78;;;1.88;;
30707;SDS011;17458;48.958;8.284;2023-05-10T07:28:11;6.07;;;1.25;;
30707;SDS011;17458;48.958;8.284;2023-05-10T07:30:55;1.20;;;1.10;;
30707;SDS011;17458;48.958;8.284;2023-05-10T07:33:39;3.22;;;0.90;;
30707;SDS011;17458;48.958;8.284;2023-05-10T07:36:23;7.13;;;1.10;;
30707;SDS011;17458;48.958;8.284;2023-05-10T07:39:09;1.10;;;1.00;;
30707;SDS011;17458;48.958;8.284;2023-05-10T07:41:53;1.17;;;1.08;;
30707;SDS011;17458;48.958;8.284;2023-05-10T07:44:37;2.05;;;1.00;;
30707;SDS011;17458;48.958;8.284;2023-05-10T07:47:22;1.30;;;0.80;;
30707;SDS011;17458;48.958;8.284;2023-05-10T07:50:06;1.80;;;1.27;;
30707;SDS011;17458;48.958;8.284;2023-05-10T07:52:50;1.27;;;1.05;;
30707;SDS011;17458;48.958;8.284;2023-05-10T07:55:34;7.32;;;1.55;;
30707;SDS011;17458;48.958;8.284;2023-05-10T07:58:18;2.22;;;1.45;;
30707;SDS011;17458;48.958;8.284;2023-05-10T08:01:02;1.30;;;1.23;;
30707;SDS011;17458;48.958;8.284;2023-05-10T08:03:46;1.08;;;0.90;;
30707;SDS011;17458;48.958;8.284;2023-05-10T08:06:31;0.90;;;0.90;;
30707;SDS011;17458;48.958;8.284;2023-05-10T08:09:15;2.05;;;1.60;;
30707;SDS011;17458;48.958;8.284;2023-05-10T08:11:59;6.20;;;1.20;;
30707;SDS011;17458;48.958;8.284;2023-05-10T08:14:44;1.05;;;0.82;;
30707;SDS011;17458;48.958;8.284;2023-05-10T08:17:28;2.47;;;1.02;;
30707;SDS011;17458;48.958;8.284;2023-05-10T08:20:12;2.47;;;0.93;;
30707;SDS011;17458;48.958;8.284;2023-05-10T08:22:56;0.68;;;0.68;;
30707;SDS011;17458;48.958;8.284;2023-05-10T08:25:40;1.17;;;1.00;;
30707;SDS011;17458;48.958;8.284;2023-05-10T08:28:25;1.40;;;0.93;;
30707;SDS011;17458;48.958;8.284;2023-05-10T08:31:08;1.15;;;1.05;;
30707;SDS011;17458;48.958;8.284;2023-05-10T08:33:53;12.50;;;1.02;;
30707;SDS011;17458;48.958;8.284;2023-05-10T08:36:36;1.02;;;1.00;;
30707;SDS011;17458;48.958;8.284;2023-05-10T08:39:20;3.28;;;0.90;;
30707;SDS011;17458;48.958;8.284;2023-05-10T08:42:04;4.22;;;0.80;;
30707;SDS011;17458;48.958;8.284;2023-05-10T08:44:50;1.75;;;1.42;;
30707;SDS011;17458;48.958;8.284;2023-05-10T08:47:36;1.92;;;0.93;;
30707;SDS011;17458;48.958;8.284;2023-05-10T08:50:21;5.47;;;1.35;;
30707;SDS011;17458;48.958;8.284;2023-05-10T08:53:13;7.60;;;0.98;;
30707;SDS011;17458;48.958;8.284;2023-05-10T08:56:00;1.40;;;1.00;;
30707;SDS011;17458;48.958;8.284;2023-05-10T08:58:47;1.08;;;0.80;;
30707;SDS011;17458;48.958;8.284;2023-05-10T09:01:32;4.85;;;0.85;;
30707;SDS011;17458;48.958;8.284;2023-05-10T09:04:20;6.45;;;0.88;;
30707;SDS011;17458;48.958;8.284;2023-05-10T09:07:04;0.85;;;0.85;;
30707;SDS011;17458;48.958;8.284;2023-05-10T09:09:50;1.50;;;1.20;;
30707;SDS011;17458;48.958;8.284;2023-05-10T09:12:35;1.55;;;1.00;;
30707;SDS011;17458;48.958;8.284;2023-05-10T09:15:19;4.28;;;0.77;;
30707;SDS011;17458;48.958;8.284;2023-05-10T09:18:03;1.55;;;1.05;;
30707;SDS011;17458;48.958;8.284;2023-05-10T09:20:48;1.50;;;1.13;;
30707;SDS011;17458;48.958;8.284;2023-05-10T09:23:33;1.38;;;0.90;;
30707;SDS011;17458;48.958;8.284;2023-05-10T09:26:17;1.27;;;0.85;;
30707;SDS011;17458;48.958;8.284;2023-05-10T09:29:06;1.52;;;1.10;;
30707;SDS011;17458;48.958;8.284;2023-05-10T09:31:52;1.95;;;1.17;;
30707;SDS011;17458;48.958;8.284;2023-05-10T09:34:38;0.82;;;0.82;;
30707;SDS011;17458;48.958;8.284;2023-05-10T09:37:30;4.38;;;1.15;;
30707;SDS011;17458;48.958;8.284;2023-05-10T09:40:15;2.20;;;1.20;;
30707;SDS011;17458;48.958;8.284;2023-05-10T09:43:09;2.00;;;1.00;;
30707;SDS011;17458;48.958;8.284;2023-05-10T09:45:54;2.60;;;0.93;;
30707;SDS011;17458;48.958;8.284;2023-05-10T09:48:42;2.75;;;0.90;;
30707;SDS011;17458;48.958;8.284;2023-05-10T09:51:27;2.22;;;0.80;;
30707;SDS011;17458;48.958;8.284;2023-05-10T09:54:12;3.13;;;1.15;;
30707;SDS011;17458;48.958;8.284;2023-05-10T09:57:00;1.35;;;0.82;;
30707;SDS011;17458;48.958;8.284;2023-05-10T09:59:45;2.53;;;1.08;;
30707;SDS011;17458;48.958;8.284;2023-05-10T10:02:29;3.95;;;1.45;;
30707;SDS011;17458;48.958;8.284;2023-05-10T10:05:14;3.95;;;1.67;;
30707;SDS011;17458;48.958;8.284;2023-05-10T10:07:59;1.30;;;1.17;;
30707;SDS011;17458;48.958;8.284;2023-05-10T10:10:44;2.70;;;1.17;;
30707;SDS011;17458;48.958;8.284;2023-05-10T10:13:30;2.38;;;1.35;;
30707;SDS011;17458;48.958;8.284;2023-05-10T10:16:15;1.05;;;1.02;;
30707;SDS011;17458;48.958;8.284;2023-05-10T10:19:00;2.30;;;1.67;;
30707;SDS011;17458;48.958;8.284;2023-05-10T10:21:44;2.08;;;1.52;;
30707;SDS011;17458;48.958;8.284;2023-05-10T10:24:28;2.75;;;1.25;;
30707;SDS011;17458;48.958;8.284;2023-05-10T10:27:15;2.80;;;1.63;;
30707;SDS011;17458;48.958;8.284;2023-05-10T10:36:17;1.67;;;1.35;;
30707;SDS011;17458;48.958;8.284;2023-05-10T10:39:07;1.70;;;1.40;;
30707;SDS011;17458;48.958;8.284;2023-05-10T10:41:54;1.27;;;1.17;;
30707;SDS011;17458;48.958;8.284;2023-05-10T10:44:40;3.97;;;1.38;;
30707;SDS011;17458;48.958;8.284;2023-05-10T10:47:25;1.73;;;1.50;;
30707;SDS011;17458;48.958;8.284;2023-05-10T10:50:14;1.67;;;1.35;;
30707;SDS011;17458;48.958;8.284;2023-05-10T10:52:59;2.15;;;1.25;;
30707;SDS011;17458;48.958;8.284;2023-05-10T10:59:07;2.60;;;1.63;;
30707;SDS011;17458;48.958;8.284;2023-05-10T11:01:51;3.40;;;1.30;;
30707;SDS011;17458;48.958;8.284;2023-05-10T11:04:42;6.80;;;1.17;;
30707;SDS011;17458;48.958;8.284;2023-05-10T11:07:27;3.38;;;1.40;;
30707;SDS011;17458;48.958;8.284;2023-05-10T11:10:11;2.00;;;1.38;;
30707;SDS011;17458;48.958;8.284;2023-05-10T11:13:08;6.13;;;1.58;;
30707;SDS011;17458;48.958;8.284;2023-05-10T11:15:53;4.50;;;1.15;;
30707;SDS011;17458;48.958;8.284;2023-05-10T11:18:38;12.45;;;4.35;;
30707;SDS011;17458;48.958;8.284;2023-05-10T11:21:22;2.10;;;1.30;;
30707;SDS011;17458;48.958;8.284;2023-05-10T11:24:12;3.85;;;1.27;;
30707;SDS011;17458;48.958;8.284;2023-05-10T11:26:57;1.40;;;1.30;;
30707;SDS011;17458;48.958;8.284;2023-05-10T11:29:42;4.40;;;1.23;;
30707;SDS011;17458;48.958;8.284;2023-05-10T11:32:26;0.98;;;0.90;;
30707;SDS011;17458;48.958;8.284;2023-05-10T11:35:11;2.85;;;1.30;;
30707;SDS011;17458;48.958;8.284;2023-05-10T11:37:55;3.13;;;1.08;;
30707;SDS011;17458;48.958;8.284;2023-05-10T11:40:40;9.32;;;2.30;;
30707;SDS011;17458;48.958;8.284;2023-05-10T11:43:25;2.10;;;1.63;;
30707;SDS011;17458;48.958;8.284;2023-05-10T11:46:14;0.85;;;0.85;;
30707;SDS011;17458;48.958;8.284;2023-05-10T11:49:00;3.63;;;0.90;;
30707;SDS011;17458;48.958;8.284;2023-05-10T11:51:45;11.98;;;4.43;;
30707;SDS011;17458;48.958;8.284;2023-05-10T11:54:29;5.22;;;2.97;;
30707;SDS011;17458;48.958;8.284;2023-05-10T11:57:14;1.40;;;1.00;;
30707;SDS011;17458;48.958;8.284;2023-05-10T11:59:58;6.25;;;0.77;;
30707;SDS011;17458;48.958;8.284;2023-05-10T12:02:51;4.53;;;1.52;;
30707;SDS011;17458;48.958;8.284;2023-05-10T12:05:35;0.85;;;0.85;;
30707;SDS011;17458;48.958;8.284;2023-05-10T12:08:21;1.00;;;0.90;;
30707;SDS011;17458;48.958;8.284;2023-05-10T12:11:07;2.20;;;1.30;;
30707;SDS011;17458;48.958;8.284;2023-05-10T12:13:54;4.07;;;1.27;;
30707;SDS011;17458;48.958;8.284;2023-05-10T12:16:39;2.90;;;1.02;;
30707;SDS011;17458;48.958;8.284;2023-05-10T12:19:24;1.00;;;0.90;;
30707;SDS011;17458;48.958;8.284;2023-05-10T12:22:08;2.05;;;1.42;;
30707;SDS011;17458;48.958;8.284;2023-05-10T12:24:52;1.33;;;0.90;;
30707;SDS011;17458;48.958;8.284;2023-05-10T12:27:36;5.45;;;1.80;;
30707;SDS011;17458;48.958;8.284;2023-05-10T12:30:21;4.20;;;0.90;;
30707;SDS011;17458;48.958;8.284;2023-05-10T12:33:09;15.75;;;3.15;;
30707;SDS011;17458;48.958;8.284;2023-05-10T12:35:55;4.53;;;1.42;;
30707;SDS011;17458;48.958;8.284;2023-05-10T12:38:46;4.63;;;1.50;;
30707;SDS011;17458;48.958;8.284;2023-05-10T12:41:33;3.70;;;1.50;;
30707;SDS011;17458;48.958;8.284;2023-05-10T12:44:17;1.23;;;1.13;;
30707;SDS011;17458;48.958;8.284;2023-05-10T12:47:01;3.80;;;0.93;;
30707;SDS011;17458;48.958;8.284;2023-05-10T12:49:45;5.68;;;1.65;;
30707;SDS011;17458;48.958;8.284;2023-05-10T12:52:30;1.27;;;1.00;;
30707;SDS011;17458;48.958;8.284;2023-05-10T12:55:15;9.10;;;1.40;;
30707;SDS011;17458;48.958;8.284;2023-05-10T12:57:59;6.90;;;1.38;;
30707;SDS011;17458;48.958;8.284;2023-05-10T13:00:43;3.67;;;1.60;;
30707;SDS011;17458;48.958;8.284;2023-05-10T13:03:28;4.10;;;1.05;;
30707;SDS011;17458;48.958;8.284;2023-05-10T13:06:12;3.75;;;1.77;;
30707;SDS011;17458;48.958;8.284;2023-05-10T13:08:57;2.30;;;0.90;;
30707;SDS011;17458;48.958;8.284;2023-05-10T13:11:41;2.63;;;0.70;;
30707;SDS011;17458;48.958;8.284;2023-05-10T13:14:29;3.63;;;0.70;;
30707;SDS011;17458;48.958;8.284;2023-05-10T13:17:13;1.05;;;0.98;;
30707;SDS011;17458;48.958;8.284;2023-05-10T13:19:57;4.88;;;0.80;;
30707;SDS011;17458;48.958;8.284;2023-05-10T13:22:43;5.20;;;0.90;;
30707;SDS011;17458;48.958;8.284;2023-05-10T13:25:28;3.92;;;0.73;;
30707;SDS011;17458;48.958;8.284;2023-05-10T13:28:11;1.13;;;1.00;;
30707;SDS011;17458;48.958;8.284;2023-05-10T13:30:55;3.00;;;0.95;;
30707;SDS011;17458;48.958;8.284;2023-05-10T13:33:39;13.38;;;1.20;;
30707;SDS011;17458;48.958;8.284;2023-05-10T13:36:23;5.10;;;1.02;;
30707;SDS011;17458;48.958;8.284;2023-05-10T13:39:07;0.88;;;0.82;;
30707;SDS011;17458;48.958;8.284;2023-05-10T13:41:52;1.35;;;0.88;;
30707;SDS011;17458;48.958;8.284;2023-05-10T13:44:35;0.93;;;0.85;;
30707;SDS011;17458;48.958;8.284;2023-05-10T13:47:19;6.88;;;1.00;;
30707;SDS011;17458;48.958;8.284;2023-05-10T13:50:05;0.85;;;0.85;;
30707;SDS011;17458;48.958;8.284;2023-05-10T13:52:49;3.58;;;0.90;;
30707;SDS011;17458;48.958;8.284;2023-05-10T13:55:33;3.03;;;1.00;;
30707;SDS011;17458;48.958;8.284;2023-05-10T13:58:17;2.22;;;1.10;;
30707;SDS011;17458;48.958;8.284;2023-05-10T14:01:01;2.22;;;1.30;;
30707;SDS011;17458;48.958;8.284;2023-05-10T14:03:45;1.95;;;1.10;;
30707;SDS011;17458;48.958;8.284;2023-05-10T14:06:29;5.53;;;0.90;;
30707;SDS011;17458;48.958;8.284;2023-05-10T14:09:14;1.77;;;0.80;;
30707;SDS011;17458;48.958;8.284;2023-05-10T14:11:58;2.00;;;0.90;;
30707;SDS011;17458;48.958;8.284;2023-05-10T14:14:42;2.55;;;0.82;;
30707;SDS011;17458;48.958;8.284;2023-05-10T14:17:26;0.70;;;0.70;;
30707;SDS011;17458;48.958;8.284;2023-05-10T14:20:10;1.17;;;0.73;;
30707;SDS011;17458;48.958;8.284;2023-05-10T14:22:54;1.20;;;1.10;;
30707;SDS011;17458;48.958;8.284;2023-05-10T14:25:41;0.70;;;0.70;;
30707;SDS011;17458;48.958;8.284;2023-05-10T14:28:26;2.88;;;1.30;;
30707;SDS011;17458;48.958;8.284;2023-05-10T14:31:10;0.70;;;0.70;;
30707;SDS011;17458;48.958;8.284;2023-05-10T14:33:54;0.80;;;0.80;;
30707;SDS011;17458;48.958;8.284;2023-05-10T14:36:38;8.18;;;0.80;;
30707;SDS011;17458;48.958;8.284;2023-05-10T14:39:23;1.45;;;0.98;;
30707;SDS011;17458;48.958;8.284;2023-05-10T14:42:07;2.20;;;0.73;;
30707;SDS011;17458;48.958;8.284;2023-05-10T14:44:51;0.88;;;0.60;;
30707;SDS011;17458;48.958;8.284;2023-05-10T14:47:35;2.65;;;1.00;;
30707;SDS011;17458;48.958;8.284;2023-05-10T14:50:19;0.95;;;0.70;;
30707;SDS011;17458;48.958;8.284;2023-05-10T14:53:03;2.95;;;0.90;;
30707;SDS011;17458;48.958;8.284;2023-05-10T14:55:47;1.10;;;1.00;;
30707;SDS011;17458;48.958;8.284;2023-05-10T14:58:31;3.30;;;1.35;;
30707;SDS011;17458;48.958;8.284;2023-05-10T15:01:15;2.25;;;1.08;;
30707;SDS011;17458;48.958;8.284;2023-05-10T15:03:59;3.72;;;1.10;;
30707;SDS011;17458;48.958;8.284;2023-05-10T15:06:42;0.80;;;0.80;;
30707;SDS011;17458;48.958;8.284;2023-05-10T15:09:26;0.95;;;0.65;;
30707;SDS011;17458;48.958;8.284;2023-05-10T15:12:11;1.15;;;0.90;;
30707;SDS011;17458;48.958;8.284;2023-05-10T15:14:55;2.83;;;0.93;;
30707;SDS011;17458;48.958;8.284;2023-05-10T15:17:39;1.80;;;1.10;;
30707;SDS011;17458;48.958;8.284;2023-05-10T15:20:23;8.20;;;0.80;;
30707;SDS011;17458;48.958;8.284;2023-05-10T15:23:07;1.10;;;0.60;;
30707;SDS011;17458;48.958;8.284;2023-05-10T15:25:51;1.20;;;0.60;;
30707;SDS011;17458;48.958;8.284;2023-05-10T15:28:39;5.47;;;0.80;;
30707;SDS011;17458;48.958;8.284;2023-05-10T15:31:23;3.35;;;1.00;;
30707;SDS011;17458;48.958;8.284;2023-05-10T15:34:10;0.77;;;0.77;;
30707;SDS011;17458;48.958;8.284;2023-05-10T15:36:54;1.45;;;0.70;;
30707;SDS011;17458;48.958;8.284;2023-05-10T15:39:39;1.65;;;0.88;;
30707;SDS011;17458;48.958;8.284;2023-05-10T15:42:23;1.85;;;0.93;;
30707;SDS011;17458;48.958;8.284;2023-05-10T15:45:07;5.38;;;0.80;;
30707;SDS011;17458;48.958;8.284;2023-05-10T15:47:51;5.45;;;0.75;;
30707;SDS011;17458;48.958;8.284;2023-05-10T15:50:35;1.00;;;0.90;;
30707;SDS011;17458;48.958;8.284;2023-05-10T15:53:19;1.50;;;0.93;;
30707;SDS011;17458;48.958;8.284;2023-05-10T15:56:03;4.22;;;0.90;;
30707;SDS011;17458;48.958;8.284;2023-05-10T15:58:48;0.80;;;0.80;;
30707;SDS011;17458;48.958;8.284;2023-05-10T16:01:32;1.42;;;0.90;;
30707;SDS011;17458;48.958;8.284;2023-05-10T16:04:16;2.75;;;0.60;;
30707;SDS011;17458;48.958;8.284;2023-05-10T16:07:00;0.95;;;0.63;;
30707;SDS011;17458;48.958;8.284;2023-05-10T16:09:45;0.80;;;0.80;;
30707;SDS011;17458;48.958;8.284;2023-05-10T16:12:29;12.50;;;2.88;;
30707;SDS011;17458;48.958;8.284;2023-05-10T16:15:14;0.60;;;0.50;;
30707;SDS011;17458;48.958;8.284;2023-05-10T16:17:58;3.63;;;0.60;;
30707;SDS011;17458;48.958;8.284;2023-05-10T16:20:42;1.23;;;0.55;;
30707;SDS011;17458;48.958;8.284;2023-05-10T16:23:27;0.50;;;0.50;;
30707;SDS011;17458;48.958;8.284;2023-05-10T16:26:11;0.93;;;0.60;;
30707;SDS011;17458;48.958;8.284;2023-05-10T16:28:55;0.70;;;0.60;;
30707;SDS011;17458;48.958;8.284;2023-05-10T16:31:39;0.80;;;0.50;;
30707;SDS011;17458;48.958;8.284;2023-05-10T16:34:23;1.35;;;1.00;;
30707;SDS011;17458;48.958;8.284;2023-05-10T16:37:07;2.60;;;0.70;;
30707;SDS011;17458;48.958;8.284;2023-05-10T16:39:52;3.25;;;0.50;;
30707;SDS011;17458;48.958;8.284;2023-05-10T16:42:36;1.23;;;0.75;;
30707;SDS011;17458;48.958;8.284;2023-05-10T16:45:20;0.60;;;0.60;;
30707;SDS011;17458;48.958;8.284;2023-05-10T16:48:04;0.52;;;0.52;;
30707;SDS011;17458;48.958;8.284;2023-05-10T16:50:48;0.60;;;0.60;;
30707;SDS011;17458;48.958;8.284;2023-05-10T16:53:32;3.08;;;1.60;;
30707;SDS011;17458;48.958;8.284;2023-05-10T16:56:17;4.03;;;0.60;;
30707;SDS011;17458;48.958;8.284;2023-05-10T16:59:04;0.50;;;0.50;;
30707;SDS011;17458;48.958;8.284;2023-05-10T17:01:48;1.02;;;0.70;;
30707;SDS011;17458;48.958;8.284;2023-05-10T17:04:32;0.95;;;0.50;;